Benge, WA (99105)

2:52 AM PDT on October 22, 2014 (GMT -0700)
Winona-Silk Stocking Road | Change Station
CLOSE
Current Station
Personal Weather Station
Location: Endicott, WA
Elevation: 1483 ft
Nearby Weather Stations

Elev 1483 ft 46.94 °N, 117.80 °W | Updated 2 seconds ago

Partly Cloudy
Partly Cloudy
43.0 °F
Feels Like 43 °F
N
0.0
Wind Variable Wind from East
Gusts 0.0 mph

Today
High -- | Low -- °F
--% Chance of Precip.
Yesterday
High -- | Low -- °F
Precip. -- in
7:19 AM 5:52 PM
Waning Crescent, 2% visible
Pressure 30.02 in
Visibility 10.0 miles
Clouds Mostly Cloudy 7000 ft
Windchill 43 °F
Dew Point 42 °F
Humidity 95%
Rainfall 0.00 in
Snow Depth Not available.
UV 0 out of 12
Pollen 2.00 out of 12
Air Quality Not available.
Flu Activity Sporadic
METAR KPUW 220853Z AUTO 10012KT 10SM BKN070 07/04 A3000 RMK AO2 SLP164 T00720039 56004

More Conditions Fewer Conditions

Pressure 30.02 in
Visibility 10.0 miles
Clouds Mostly Cloudy 7000 ft
Windchill 43 °F
Dew Point 42 °F
Humidity 95%
Rainfall 0.00 in
Snow Depth Not available.
UV 0 out of 12
Pollen 2.00 out of 12
Air Quality Not available.
Flu Activity Sporadic
METAR KPUW 220853Z AUTO 10012KT 10SM BKN070 07/04 A3000 RMK AO2 SLP164 T00720039 56004

More Conditions Fewer Conditions

10-Day Weather Forecast

Almanac

Astronomy

Oct. 22, 2014 Rise Set
Actual Time 7:19 AM PDT 5:52 PM PDT
Civil Twilight 6:48 AM PDT 6:23 PM PDT
Nautical Twilight 6:13 AM PDT 6:58 PM PDT
Astronomical Twilight 5:38 AM PDT 7:33 PM PDT
Moon 6:01 AM PDT 5:24 PM PDT
Length of Visible Light 11h 34m
Length of Day
10h 32m
Tomorrow will be 3m 10s shorter.
Waning Crescent, 2% of the Moon is Illuminated
Today
Waning Crescent
Oct 23
New
Oct 30
First Quarter
Nov 6
Full
Nov 14
Last Quarter

Today's Extremes

State Highs State Lows

Community

WunderPhotos

Upload Photos

1,763,900 photos uploaded!

Nearby

Snow Depth

Station Depth Elevation
Touchet 0 in 5530 ft
Spruce Springs 1 in 5700 ft
Sourdough Gulch 0 in 4000 ft
Quartz Peak 2 in 4700 ft
Trough 0 in 5300 ft

Earthquake Activity

City Distance Mag. Time & Date
No recent earthquake activity has been reported nearby.
Minimum magnitude displayed is 2.5.

Coastal Water Temperatures

Place Temperature
No Stations Reporting

Nearby Weather Stations